createdAt,value
2022-08-19T00:00:11.959Z,101082.50
2022-08-19T00:02:13.523Z,101095.06
2022-08-19T00:04:15.536Z,101088.47
2022-08-19T00:06:17.186Z,101070.59
2022-08-19T00:08:23.671Z,101081.06
2022-08-19T00:10:25.329Z,101082.03
2022-08-19T00:12:26.907Z,101083.97
2022-08-19T00:14:29.080Z,101085.06
2022-08-19T00:16:30.570Z,101086.31
2022-08-19T00:18:32.188Z,101091.56
2022-08-19T00:20:33.813Z,101096.31
2022-08-19T00:22:35.325Z,101096.34
2022-08-19T00:24:38.196Z,101096.03
2022-08-19T00:26:40.081Z,101096.88
2022-08-19T00:28:41.584Z,101101.66
2022-08-19T00:30:43.065Z,101087.41
2022-08-19T00:32:44.606Z,101087.34
2022-08-19T00:34:46.111Z,101086.38
2022-08-19T00:36:47.781Z,101091.75
2022-08-19T00:38:49.285Z,101088.00
2022-08-19T00:40:52.400Z,101095.19
2022-08-19T00:42:54.023Z,101092.50
2022-08-19T00:44:55.674Z,101096.91
2022-08-19T00:46:58.740Z,101091.78
2022-08-19T00:49:00.703Z,101086.41
2022-08-19T00:51:02.251Z,101094.25
2022-08-19T00:53:03.726Z,101089.81
2022-08-19T00:55:06.504Z,101093.34
2022-08-19T00:57:10.688Z,101090.88
2022-08-19T00:59:12.219Z,101095.34
2022-08-19T01:01:13.781Z,101086.09
2022-08-19T01:03:16.394Z,101089.03
2022-08-19T01:05:22.199Z,101088.91
2022-08-19T01:07:23.705Z,101089.72
2022-08-19T01:09:25.500Z,101085.44
2022-08-19T01:11:27.297Z,101093.38
2022-08-19T01:13:49.433Z,101085.34
2022-08-19T01:15:52.475Z,101090.69
2022-08-19T01:17:54.303Z,101087.94
2022-08-19T01:19:55.827Z,101082.69
2022-08-19T01:21:59.320Z,101095.41
2022-08-19T01:24:07.192Z,101091.63
2022-08-19T01:26:09.449Z,101094.78
2022-08-19T01:28:15.653Z,101096.25
2022-08-19T01:30:20.186Z,101090.28
2022-08-19T01:32:33.533Z,101093.88
2022-08-19T01:34:35.709Z,101087.56
2022-08-19T01:36:38.415Z,101093.91
2022-08-19T01:38:44.236Z,101095.59
2022-08-19T01:40:47.642Z,101095.38
2022-08-19T01:42:49.211Z,101102.84
2022-08-19T01:44:50.827Z,101100.97
2022-08-19T01:46:52.488Z,101100.97
2022-08-19T01:48:54.017Z,101103.84
2022-08-19T01:50:55.651Z,101094.78
2022-08-19T01:53:06.296Z,101102.88
2022-08-19T01:55:09.936Z,101104.75
2022-08-19T01:57:13.377Z,101105.50
2022-08-19T01:59:15.580Z,101096.84
2022-08-19T02:01:17.257Z,101101.22
2022-08-19T02:03:18.806Z,101107.53
2022-08-19T02:05:20.315Z,101103.03
2022-08-19T02:07:21.868Z,101108.47
2022-08-19T02:09:23.415Z,101103.06
2022-08-19T02:11:26.764Z,101105.78
2022-08-19T02:13:29.663Z,101112.22
2022-08-19T02:15:31.180Z,101108.63
2022-08-19T02:17:32.695Z,101102.41
2022-08-19T02:19:34.356Z,101099.00
2022-08-19T02:21:35.868Z,101104.28
2022-08-19T02:23:37.451Z,101097.94
2022-08-19T02:25:39.259Z,101105.25
2022-08-19T02:27:41.012Z,101106.84
2022-08-19T02:29:43.863Z,101107.97
2022-08-19T02:31:45.922Z,101112.47
2022-08-19T02:33:47.588Z,101115.94
2022-08-19T02:35:49.071Z,101114.91
2022-08-19T02:37:50.625Z,101121.66
2022-08-19T02:39:52.160Z,101119.94
2022-08-19T02:41:53.759Z,101111.06
2022-08-19T02:44:29.823Z,101107.03
2022-08-19T02:46:19.082Z,101113.44
2022-08-19T02:48:21.523Z,101113.41
2022-08-19T02:50:23.609Z,101110.53
2022-08-19T02:52:25.199Z,101101.03
2022-08-19T02:54:26.684Z,101105.69
2022-08-19T02:56:28.205Z,101102.16
2022-08-19T02:58:29.724Z,101099.50
2022-08-19T03:00:31.735Z,101104.06
2022-08-19T03:02:36.518Z,101107.69
2022-08-19T03:04:37.995Z,101112.16
2022-08-19T03:06:39.735Z,101116.38
2022-08-19T03:08:42.449Z,101109.31
2022-08-19T03:10:44.722Z,101114.78
2022-08-19T03:12:46.463Z,101113.66
2022-08-19T03:14:48.076Z,101116.47
2022-08-19T03:16:50.275Z,101120.16
2022-08-19T03:18:53.696Z,101105.69
2022-08-19T03:20:55.443Z,101105.53
2022-08-19T03:22:56.985Z,101103.69
2022-08-19T03:24:58.554Z,101115.50
2022-08-19T03:27:00.064Z,101108.41
2022-08-19T03:29:02.433Z,101103.81
2022-08-19T03:31:44.253Z,101107.19
2022-08-19T03:33:30.116Z,101104.81
2022-08-19T03:35:33.412Z,101100.84
2022-08-19T03:37:34.916Z,101101.88
2022-08-19T03:39:36.943Z,101093.81
2022-08-19T03:41:45.487Z,101101.94
2022-08-19T03:43:47.875Z,101103.59
2022-08-19T03:45:49.392Z,101110.91
2022-08-19T03:47:50.879Z,101107.47
2022-08-19T03:49:52.395Z,101104.00
2022-08-19T03:51:55.766Z,101103.81
2022-08-19T03:53:57.870Z,101106.69
2022-08-19T03:55:59.418Z,101098.56
2022-08-19T03:58:00.962Z,101109.38
2022-08-19T04:00:03.992Z,101106.38
2022-08-19T04:02:15.367Z,101106.63
2022-08-19T04:04:16.831Z,101107.25
2022-08-19T04:06:22.892Z,101107.13
2022-08-19T04:08:25.775Z,101109.09
2022-08-19T04:10:27.388Z,101100.38
2022-08-19T04:12:29.191Z,101110.13
2022-08-19T04:14:30.755Z,101099.50
2022-08-19T04:16:35.301Z,101100.38
2022-08-19T04:18:37.323Z,101102.16
2022-08-19T04:20:42.521Z,101101.91
2022-08-19T04:22:44.026Z,101095.38
2022-08-19T04:24:46.900Z,101098.69
2022-08-19T04:26:48.576Z,101104.16
2022-08-19T04:28:50.075Z,101108.91
2022-08-19T04:30:52.913Z,101099.63
2022-08-19T04:32:54.609Z,101103.59
2022-08-19T04:35:02.039Z,101111.56
2022-08-19T04:37:17.772Z,101111.56
2022-08-19T04:39:20.470Z,101107.19
2022-08-19T04:41:23.416Z,101101.69
2022-08-19T04:43:25.270Z,101104.19
2022-08-19T04:45:26.754Z,101112.38
2022-08-19T04:47:47.799Z,101115.25
2022-08-19T04:49:50.048Z,101125.97
2022-08-19T04:51:52.094Z,101127.50
2022-08-19T04:53:53.665Z,101122.50
2022-08-19T04:55:55.733Z,101129.81
2022-08-19T04:57:58.708Z,101142.22
2022-08-19T05:00:01.726Z,101133.28
2022-08-19T05:02:03.712Z,101133.31
2022-08-19T05:04:06.026Z,101134.44
2022-08-19T05:06:09.098Z,101141.31
2022-08-19T05:08:10.608Z,101143.00
2022-08-19T05:10:15.656Z,101142.16
2022-08-19T05:12:17.500Z,101144.78
2022-08-19T05:14:20.375Z,101145.50
2022-08-19T05:16:22.680Z,101140.06
2022-08-19T05:18:24.162Z,101136.09
2022-08-19T05:20:25.678Z,101141.97
2022-08-19T05:22:27.157Z,101130.50
2022-08-19T05:24:28.996Z,101139.50
2022-08-19T05:26:32.715Z,101135.94
2022-08-19T05:28:34.206Z,101144.47
2022-08-19T05:30:46.785Z,101145.63
2022-08-19T05:32:48.892Z,101149.69
2022-08-19T05:34:50.419Z,101156.22
2022-08-19T05:36:52.401Z,101149.78
2022-08-19T05:38:53.951Z,101155.69
2022-08-19T05:40:55.508Z,101150.88
2022-08-19T05:42:57.020Z,101157.41
2022-08-19T05:44:58.647Z,101155.56
2022-08-19T05:47:01.671Z,101150.72
2022-08-19T05:49:03.451Z,101158.97
2022-08-19T05:51:05.476Z,101144.19
2022-08-19T05:53:06.952Z,101151.78
2022-08-19T05:55:08.524Z,101146.09
2022-08-19T05:57:10.101Z,101150.63
2022-08-19T05:59:15.937Z,101144.94
2022-08-19T06:01:19.035Z,101154.19
2022-08-19T06:03:21.901Z,101158.34
2022-08-19T06:05:23.396Z,101171.34
2022-08-19T06:07:25.133Z,101178.34
2022-08-19T06:09:26.629Z,101174.09
2022-08-19T06:11:32.872Z,101176.63
2022-08-19T06:13:35.290Z,101173.81
2022-08-19T06:15:38.403Z,101169.47
2022-08-19T06:17:39.918Z,101173.28
2022-08-19T06:19:42.800Z,101163.38
2022-08-19T06:21:44.847Z,101177.59
2022-08-19T06:23:46.497Z,101182.78
2022-08-19T06:25:48.012Z,101178.84
2022-08-19T06:28:13.362Z,101186.03
2022-08-19T06:30:11.773Z,101188.41
2022-08-19T06:32:13.447Z,101178.28
2022-08-19T06:34:14.937Z,101182.31
2022-08-19T06:36:21.950Z,101183.28
2022-08-19T06:38:27.396Z,101186.41
2022-08-19T06:40:28.914Z,101186.09
2022-08-19T06:42:30.402Z,101195.47
2022-08-19T06:44:32.216Z,101200.19
2022-08-19T06:46:35.329Z,101192.81
2022-08-19T06:48:44.952Z,101193.44
2022-08-19T06:50:47.368Z,101194.75
2022-08-19T06:52:50.306Z,101201.19
2022-08-19T06:54:55.680Z,101193.75
2022-08-19T06:56:58.447Z,101193.47
2022-08-19T06:59:00.362Z,101186.88
2022-08-19T07:01:05.641Z,101185.16
2022-08-19T07:03:12.871Z,101182.91
2022-08-19T07:05:14.610Z,101193.00
2022-08-19T07:07:21.028Z,101188.47
2022-08-19T07:09:24.545Z,101195.94
2022-08-19T07:11:26.036Z,101199.66
2022-08-19T07:13:27.626Z,101200.59
2022-08-19T07:15:29.202Z,101205.00
2022-08-19T07:17:31.054Z,101209.91
2022-08-19T07:19:32.743Z,101201.63
2022-08-19T07:21:34.750Z,101209.22
2022-08-19T07:23:39.149Z,101211.94
2022-08-19T07:25:42.092Z,101216.00
2022-08-19T07:27:46.301Z,101205.94
2022-08-19T07:29:47.971Z,101210.56
2022-08-19T07:31:58.162Z,101209.31
2022-08-19T07:34:01.740Z,101200.66
2022-08-19T07:36:04.077Z,101202.34
2022-08-19T07:38:05.581Z,101201.25
2022-08-19T07:40:08.159Z,101205.75
2022-08-19T07:42:11.528Z,101197.25
2022-08-19T07:44:15.363Z,101199.25
2022-08-19T07:46:17.014Z,101199.44
2022-08-19T07:48:18.493Z,101198.41
2022-08-19T07:50:21.198Z,101209.22
2022-08-19T07:52:22.772Z,101205.88
2022-08-19T07:54:24.816Z,101203.41
2022-08-19T07:56:26.443Z,101208.69
2022-08-19T07:58:29.604Z,101195.41
2022-08-19T08:00:31.249Z,101201.81
2022-08-19T08:02:32.827Z,101201.41
2022-08-19T08:04:34.332Z,101209.03
2022-08-19T08:06:35.867Z,101212.56
2022-08-19T08:08:37.380Z,101202.78
2022-08-19T08:10:53.012Z,101207.50
2022-08-19T08:13:08.567Z,101204.44
2022-08-19T08:15:14.873Z,101200.88
2022-08-19T08:17:48.553Z,101199.56
2022-08-19T08:19:43.177Z,101205.63
2022-08-19T08:21:45.286Z,101214.16
2022-08-19T08:23:46.809Z,101216.44
2022-08-19T08:25:49.285Z,101217.06
2022-08-19T08:27:53.750Z,101219.56
2022-08-19T08:29:57.377Z,101217.81
2022-08-19T08:32:00.700Z,101222.22
2022-08-19T08:34:02.464Z,101227.22
2022-08-19T08:36:05.440Z,101220.47
2022-08-19T08:38:06.925Z,101216.44
2022-08-19T08:40:24.388Z,101222.22
2022-08-19T08:42:28.929Z,101222.22
2022-08-19T08:44:32.840Z,101219.50
2022-08-19T08:46:35.176Z,101217.44
2022-08-19T08:48:39.143Z,101215.59
2022-08-19T08:50:41.232Z,101215.06
2022-08-19T08:52:44.254Z,101220.22
2022-08-19T08:54:49.035Z,101222.38
2022-08-19T08:56:56.666Z,101230.72
2022-08-19T08:58:59.515Z,101227.66
2022-08-19T09:01:01.003Z,101224.94
2022-08-19T09:03:03.249Z,101220.13
2022-08-19T09:05:07.929Z,101217.59
2022-08-19T09:07:35.511Z,101222.22
2022-08-19T09:09:38.836Z,101225.56
2022-08-19T09:11:51.771Z,101215.06
2022-08-19T09:14:02.023Z,101221.50
2022-08-19T09:16:04.621Z,101224.63
2022-08-19T09:18:07.216Z,101210.44
2022-08-19T09:20:17.065Z,101210.94
2022-08-19T09:22:25.368Z,101203.06
2022-08-19T09:24:31.327Z,101207.56
2022-08-19T09:26:47.678Z,101209.09
2022-08-19T09:28:54.418Z,101211.25
2022-08-19T09:30:56.005Z,101210.66
2022-08-19T09:32:57.552Z,101208.78
2022-08-19T09:34:59.175Z,101210.88
2022-08-19T09:37:02.038Z,101215.34
2022-08-19T09:39:04.176Z,101217.75
2022-08-19T09:41:06.014Z,101206.47
2022-08-19T09:43:11.474Z,101207.44
2022-08-19T09:45:15.200Z,101202.03
2022-08-19T09:47:16.669Z,101208.97
2022-08-19T09:49:21.566Z,101205.88
2022-08-19T09:51:24.230Z,101202.09
2022-08-19T09:53:27.245Z,101209.56
2022-08-19T09:55:31.994Z,101209.19
2022-08-19T09:57:34.622Z,101204.50
2022-08-19T09:59:36.110Z,101205.06
2022-08-19T10:01:37.674Z,101212.16
2022-08-19T10:03:39.208Z,101206.72
2022-08-19T10:05:42.326Z,101215.53
2022-08-19T10:07:44.202Z,101211.19
2022-08-19T10:09:47.051Z,101208.94
2022-08-19T10:11:54.466Z,101205.81
2022-08-19T10:13:56.518Z,101198.22
2022-08-19T10:16:02.572Z,101201.91
2022-08-19T10:18:04.101Z,101206.41
2022-08-19T10:20:07.511Z,101205.63
2022-08-19T10:22:10.084Z,101202.47
2022-08-19T10:24:13.759Z,101202.09
2022-08-19T10:26:17.752Z,101209.53
2022-08-19T10:28:20.628Z,101204.72
2022-08-19T10:30:25.178Z,101200.47
2022-08-19T10:32:34.170Z,101201.50
2022-08-19T10:34:36.977Z,101201.44
2022-08-19T10:36:56.321Z,101192.72
2022-08-19T10:38:58.757Z,101189.50
2022-08-19T10:41:07.082Z,101189.44
2022-08-19T10:43:09.957Z,101198.66
2022-08-19T10:45:11.487Z,101192.28
2022-08-19T10:47:17.943Z,101195.22
2022-08-19T10:49:26.655Z,101197.91
2022-08-19T10:51:29.702Z,101194.25
2022-08-19T10:53:31.205Z,101191.88
2022-08-19T10:55:32.709Z,101193.31
2022-08-19T10:58:01.267Z,101201.13
2022-08-19T10:59:57.958Z,101197.69
2022-08-19T11:01:59.937Z,101193.78
2022-08-19T11:04:01.659Z,101191.94
2022-08-19T11:06:04.018Z,101188.34
2022-08-19T11:08:22.537Z,101192.94
2022-08-19T11:10:25.558Z,101184.97
2022-08-19T11:12:27.102Z,101186.78
2022-08-19T11:14:28.794Z,101190.41
2022-08-19T11:16:35.055Z,101181.66
2022-08-19T11:18:37.319Z,101185.38
2022-08-19T11:20:38.831Z,101180.69
2022-08-19T11:22:41.601Z,101178.09
2022-08-19T11:24:43.773Z,101178.28
2022-08-19T11:26:45.304Z,101187.88
2022-08-19T11:28:47.342Z,101177.03
2022-08-19T11:30:48.828Z,101186.88
2022-08-19T11:32:51.736Z,101182.88
2022-08-19T11:34:53.239Z,101184.59
2022-08-19T11:36:54.788Z,101186.75
2022-08-19T11:38:56.314Z,101181.53
2022-08-19T11:40:58.368Z,101180.81
2022-08-19T11:42:59.854Z,101175.56
2022-08-19T11:45:01.410Z,101181.22
2022-08-19T11:47:08.867Z,101176.41
2022-08-19T11:49:14.185Z,101181.66
2022-08-19T11:51:16.772Z,101183.66
2022-08-19T11:53:18.831Z,101186.44
2022-08-19T11:55:20.312Z,101180.69
2022-08-19T11:57:21.824Z,101181.34
2022-08-19T11:59:23.355Z,101188.56
2022-08-19T12:01:25.476Z,101185.56
2022-08-19T12:03:27.084Z,101182.34
2022-08-19T12:05:30.166Z,101183.25
2022-08-19T12:07:36.611Z,101187.75
2022-08-19T12:09:38.137Z,101185.34
2022-08-19T12:11:44.119Z,101183.34
2022-08-19T12:13:45.766Z,101195.34
2022-08-19T12:15:47.636Z,101187.19
2022-08-19T12:17:49.132Z,101192.81
2022-08-19T12:19:50.651Z,101184.00
2022-08-19T12:21:53.527Z,101195.56
2022-08-19T12:23:56.089Z,101201.25
2022-08-19T12:25:57.603Z,101203.47
2022-08-19T12:27:59.558Z,101196.25
2022-08-19T12:30:01.287Z,101190.00
2022-08-19T12:32:03.822Z,101205.06
2022-08-19T12:34:05.683Z,101199.06
2022-08-19T12:36:08.449Z,101193.53
2022-08-19T12:38:11.352Z,101198.00
2022-08-19T12:40:13.115Z,101192.47
2022-08-19T12:42:14.868Z,101190.63
2022-08-19T12:44:16.388Z,101188.22
2022-08-19T12:46:22.645Z,101178.78
2022-08-19T12:48:33.544Z,101185.91
2022-08-19T12:50:36.135Z,101182.66
2022-08-19T12:52:37.711Z,101179.25
2022-08-19T12:54:40.549Z,101179.31
2022-08-19T12:56:42.038Z,101183.28
2022-08-19T12:58:48.851Z,101175.13
2022-08-19T13:00:52.254Z,101179.63
2022-08-19T13:02:53.813Z,101182.75
2022-08-19T13:04:55.381Z,101179.91
2022-08-19T13:06:56.880Z,101176.41
2022-08-19T13:08:59.766Z,101177.22
2022-08-19T13:11:09.404Z,101168.56
2022-08-19T13:13:12.266Z,101160.56
2022-08-19T13:15:15.138Z,101148.91
2022-08-19T13:17:16.834Z,101153.91
2022-08-19T13:19:18.329Z,101153.50
2022-08-19T13:21:20.495Z,101154.59
2022-08-19T13:23:24.196Z,101158.16
2022-08-19T13:25:25.764Z,101144.75
2022-08-19T13:27:28.680Z,101145.38
2022-08-19T13:29:30.178Z,101151.81
2022-08-19T13:31:32.449Z,101150.94
2022-08-19T13:33:33.968Z,101142.09
2022-08-19T13:35:35.462Z,101147.25
2022-08-19T13:37:36.956Z,101149.59
2022-08-19T13:39:38.528Z,101143.59
2022-08-19T13:41:43.949Z,101138.00
2022-08-19T13:43:46.801Z,101138.16
2022-08-19T13:45:48.323Z,101130.69
2022-08-19T13:47:50.317Z,101126.75
2022-08-19T13:49:51.938Z,101134.59
2022-08-19T13:51:53.418Z,101134.34
2022-08-19T13:53:54.960Z,101132.00
2022-08-19T13:55:56.456Z,101132.28
2022-08-19T13:57:59.229Z,101124.88
2022-08-19T14:00:02.472Z,101126.75
2022-08-19T14:02:03.977Z,101136.00
2022-08-19T14:04:05.747Z,101128.63
2022-08-19T14:06:07.286Z,101136.09
2022-08-19T14:08:08.787Z,101133.63
2022-08-19T14:10:12.424Z,101131.53
2022-08-19T14:12:14.005Z,101133.66
2022-08-19T14:14:16.506Z,101128.22
2022-08-19T14:16:19.499Z,101121.56
2022-08-19T14:18:21.053Z,101123.22
2022-08-19T14:20:25.884Z,101127.16
2022-08-19T14:22:27.830Z,101122.16
2022-08-19T14:24:29.323Z,101122.91
2022-08-19T14:26:30.824Z,101122.69
2022-08-19T14:28:35.209Z,101116.91
2022-08-19T14:30:37.199Z,101119.66
2022-08-19T14:32:40.100Z,101112.16
2022-08-19T14:34:41.676Z,101120.91
2022-08-19T14:36:43.511Z,101120.44
2022-08-19T14:38:45.056Z,101120.59
2022-08-19T14:40:46.548Z,101119.16
2022-08-19T14:42:48.120Z,101119.81
2022-08-19T14:44:49.654Z,101113.84
2022-08-19T14:46:51.165Z,101123.25
2022-08-19T14:48:54.524Z,101116.16
2022-08-19T14:50:56.094Z,101115.28
2022-08-19T14:53:00.577Z,101115.22
2022-08-19T14:55:02.095Z,101119.94
2022-08-19T14:57:07.320Z,101117.22
2022-08-19T14:59:08.862Z,101107.56
2022-08-19T15:01:11.848Z,101111.84
2022-08-19T15:03:13.388Z,101118.94
2022-08-19T15:05:16.463Z,101121.78
2022-08-19T15:07:17.980Z,101113.41
2022-08-19T15:09:21.315Z,101125.63
2022-08-19T15:11:23.855Z,101115.31
2022-08-19T15:13:26.000Z,101125.47
2022-08-19T15:15:27.502Z,101121.09
2022-08-19T15:17:43.308Z,101121.69
2022-08-19T15:19:50.510Z,101125.16
2022-08-19T15:21:53.381Z,101122.25
2022-08-19T15:23:55.212Z,101125.44
2022-08-19T15:25:56.838Z,101117.69
2022-08-19T15:27:58.377Z,101123.59
2022-08-19T15:30:01.500Z,101130.72
2022-08-19T15:32:03.475Z,101123.72
2022-08-19T15:34:04.994Z,101123.47
2022-08-19T15:36:06.727Z,101126.47
2022-08-19T15:38:11.250Z,101124.78
2022-08-19T15:40:12.869Z,101127.84
2022-08-19T15:42:14.385Z,101135.34
2022-08-19T15:44:29.657Z,101133.81
2022-08-19T15:46:32.273Z,101132.34
2022-08-19T15:48:33.833Z,101131.00
2022-08-19T15:50:35.393Z,101134.91
2022-08-19T15:52:37.131Z,101134.38
2022-08-19T15:54:52.145Z,101133.31
2022-08-19T15:56:57.491Z,101133.47
2022-08-19T15:58:59.569Z,101144.69
2022-08-19T16:01:02.205Z,101144.03
2022-08-19T16:03:03.711Z,101142.97
2022-08-19T16:05:06.470Z,101143.28
2022-08-19T16:07:08.005Z,101143.97
2022-08-19T16:09:09.490Z,101139.81
2022-08-19T16:11:12.558Z,101125.59
2022-08-19T16:13:14.060Z,101135.06
2022-08-19T16:15:15.574Z,101131.66
2022-08-19T16:17:17.073Z,101129.13
2022-08-19T16:19:18.827Z,101130.78
2022-08-19T16:21:20.699Z,101129.00
2022-08-19T16:23:22.193Z,101129.19
2022-08-19T16:25:23.918Z,101129.53
2022-08-19T16:27:27.702Z,101136.16
2022-08-19T16:29:34.675Z,101136.03
2022-08-19T16:31:40.678Z,101142.38
2022-08-19T16:33:42.157Z,101136.91
2022-08-19T16:35:43.654Z,101131.34
2022-08-19T16:37:48.669Z,101129.28
2022-08-19T16:39:50.200Z,101135.72
2022-08-19T16:41:51.809Z,101138.69
2022-08-19T16:43:55.023Z,101129.44
2022-08-19T16:45:56.540Z,101133.66
2022-08-19T16:47:58.026Z,101133.91
2022-08-19T16:49:59.610Z,101135.03
2022-08-19T16:52:01.110Z,101127.78
2022-08-19T16:54:02.664Z,101132.53
2022-08-19T16:56:04.454Z,101136.34
2022-08-19T16:58:05.958Z,101138.13
2022-08-19T17:00:09.613Z,101132.56
2022-08-19T17:02:11.119Z,101137.34
2022-08-19T17:04:12.618Z,101133.38
2022-08-19T17:06:20.458Z,101141.59
2022-08-19T17:08:23.314Z,101138.38
2022-08-19T17:10:24.812Z,101135.59
2022-08-19T17:12:31.549Z,101141.16
2022-08-19T17:14:33.966Z,101134.78
2022-08-19T17:16:36.963Z,101144.94
2022-08-19T17:18:38.459Z,101134.22
2022-08-19T17:20:40.737Z,101134.03
2022-08-19T17:22:42.228Z,101135.50
2022-08-19T17:24:43.731Z,101143.28
2022-08-19T17:26:45.247Z,101131.78
2022-08-19T17:28:47.166Z,101133.84
2022-08-19T17:30:48.722Z,101134.50
2022-08-19T17:32:51.563Z,101135.38
2022-08-19T17:34:53.072Z,101138.28
2022-08-19T17:36:54.608Z,101133.78
2022-08-19T17:38:56.531Z,101125.16
2022-08-19T17:40:58.031Z,101126.50
2022-08-19T17:42:59.530Z,101131.56
2022-08-19T17:45:01.031Z,101133.50
2022-08-19T17:47:02.537Z,101131.66
2022-08-19T17:49:05.414Z,101132.69
2022-08-19T17:51:13.299Z,101137.16
2022-08-19T17:53:14.835Z,101132.91
2022-08-19T17:55:16.367Z,101133.00
2022-08-19T17:57:17.854Z,101141.94
2022-08-19T17:59:19.345Z,101141.56
2022-08-19T18:01:20.915Z,101145.72
2022-08-19T18:03:26.198Z,101147.84
2022-08-19T18:05:29.769Z,101176.13
2022-08-19T18:07:31.275Z,101165.69
2022-08-19T18:09:42.400Z,101173.88
2022-08-19T18:11:44.394Z,101173.19
2022-08-19T18:13:47.134Z,101177.34
2022-08-19T18:15:48.624Z,101182.75
2022-08-19T18:17:50.127Z,101188.53
2022-08-19T18:19:51.675Z,101191.13
2022-08-19T18:21:54.517Z,101194.84
2022-08-19T18:24:01.877Z,101206.09
2022-08-19T18:26:03.928Z,101209.72
2022-08-19T18:28:05.440Z,101215.13
2022-08-19T18:30:07.717Z,101227.03
2022-08-19T18:32:09.375Z,101233.41
2022-08-19T18:34:10.976Z,101229.63
2022-08-19T18:36:12.490Z,101226.59
2022-08-19T18:38:16.246Z,101225.56
2022-08-19T18:40:18.741Z,101230.53
2022-08-19T18:42:20.393Z,101219.25
2022-08-19T18:44:21.891Z,101212.44
2022-08-19T18:46:26.156Z,101225.97
2022-08-19T18:48:32.633Z,101223.94
2022-08-19T18:50:34.222Z,101234.13
2022-08-19T18:52:35.736Z,101229.56
2022-08-19T18:54:38.735Z,101237.53
2022-08-19T18:56:40.220Z,101237.00
2022-08-19T18:58:41.997Z,101230.13
2022-08-19T19:00:43.542Z,101221.25
2022-08-19T19:02:45.054Z,101228.50
2022-08-19T19:04:46.535Z,101236.72
2022-08-19T19:06:48.442Z,101234.53
2022-08-19T19:08:50.075Z,101231.00
2022-08-19T19:10:52.935Z,101229.03
2022-08-19T19:12:54.443Z,101233.84
2022-08-19T19:14:55.979Z,101240.38
2022-08-19T19:16:57.567Z,101253.22
2022-08-19T19:18:59.201Z,101249.84
2022-08-19T19:21:00.721Z,101263.25
2022-08-19T19:23:02.199Z,101253.50
2022-08-19T19:25:03.972Z,101254.47
2022-08-19T19:27:07.183Z,101260.72
2022-08-19T19:29:08.703Z,101264.03
2022-08-19T19:31:11.148Z,101267.34
2022-08-19T19:33:12.639Z,101273.63
2022-08-19T19:35:14.127Z,101265.69
2022-08-19T19:37:15.609Z,101284.41
2022-08-19T19:39:30.734Z,101279.22
2022-08-19T19:41:38.659Z,101278.22
2022-08-19T19:43:41.720Z,101278.25
2022-08-19T19:45:43.198Z,101281.19
2022-08-19T19:47:44.826Z,101283.63
2022-08-19T19:50:10.540Z,101285.13
2022-08-19T19:52:07.922Z,101282.31
2022-08-19T19:54:15.277Z,101280.84
2022-08-19T19:56:16.755Z,101288.28
2022-08-19T19:58:18.231Z,101299.25
2022-08-19T20:00:24.297Z,101298.81
2022-08-19T20:02:25.746Z,101311.50
2022-08-19T20:04:27.440Z,101303.28
2022-08-19T20:06:28.934Z,101299.59
2022-08-19T20:08:30.438Z,101284.94
2022-08-19T20:10:31.961Z,101306.97
2022-08-19T20:12:33.447Z,101297.16
2022-08-19T20:14:34.976Z,101306.19
2022-08-19T20:16:37.965Z,101304.50
2022-08-19T20:18:39.448Z,101300.19
2022-08-19T20:20:41.339Z,101299.06
2022-08-19T20:22:43.135Z,101310.00
2022-08-19T20:24:44.678Z,101302.75
2022-08-19T20:26:46.534Z,101303.34
2022-08-19T20:28:58.257Z,101324.00
2022-08-19T20:31:13.818Z,101319.25
2022-08-19T20:33:16.680Z,101303.03
2022-08-19T20:35:19.302Z,101315.41
2022-08-19T20:37:20.816Z,101318.59
2022-08-19T20:39:22.314Z,101323.59
2022-08-19T20:41:23.821Z,101321.69
2022-08-19T20:43:25.378Z,101328.84
2022-08-19T20:45:32.238Z,101327.97
2022-08-19T20:47:35.024Z,101333.28
2022-08-19T20:49:37.968Z,101327.06
2022-08-19T20:51:39.441Z,101329.84
2022-08-19T20:53:41.175Z,101327.06
2022-08-19T20:55:43.053Z,101338.91
2022-08-19T20:57:44.541Z,101336.09
2022-08-19T20:59:46.041Z,101342.56
2022-08-19T21:01:47.774Z,101337.16
2022-08-19T21:03:50.036Z,101349.25
2022-08-19T21:05:52.957Z,101353.47
2022-08-19T21:07:54.667Z,101351.09
2022-08-19T21:09:56.226Z,101346.69
2022-08-19T21:11:57.883Z,101349.53
2022-08-19T21:13:59.386Z,101347.56
2022-08-19T21:16:00.883Z,101350.25
2022-08-19T21:18:02.630Z,101355.63
2022-08-19T21:20:04.736Z,101351.44
2022-08-19T21:22:07.584Z,101362.25
2022-08-19T21:24:09.097Z,101353.88
2022-08-19T21:26:10.622Z,101357.78
2022-08-19T21:28:12.108Z,101351.72
2022-08-19T21:30:31.505Z,101359.91
2022-08-19T21:32:33.024Z,101355.31
2022-08-19T21:34:34.509Z,101363.19
2022-08-19T21:36:36.031Z,101361.25
2022-08-19T21:38:39.003Z,101357.78
2022-08-19T21:40:40.484Z,101362.31
2022-08-19T21:42:41.999Z,101366.84
2022-08-19T21:44:45.921Z,101371.41
2022-08-19T21:46:50.584Z,101365.25
2022-08-19T21:48:52.270Z,101359.88
2022-08-19T21:50:53.747Z,101373.38
2022-08-19T21:52:55.231Z,101375.25
2022-08-19T21:54:58.106Z,101371.50
2022-08-19T21:59:01.283Z,101376.94
2022-08-19T22:01:03.297Z,101379.59
2022-08-19T22:03:05.010Z,101386.84
2022-08-19T22:05:06.972Z,101390.38
2022-08-19T22:07:08.723Z,101391.47
2022-08-19T22:09:10.244Z,101384.41
2022-08-19T22:11:13.247Z,101388.88
2022-08-19T22:13:14.788Z,101392.59
2022-08-19T22:15:16.504Z,101395.28
2022-08-19T22:17:20.289Z,101398.78
2022-08-19T22:19:21.831Z,101397.91
2022-08-19T22:21:39.897Z,101396.19
2022-08-19T22:23:42.518Z,101397.13
2022-08-19T22:25:44.961Z,101390.81
2022-08-19T22:27:47.872Z,101396.09
2022-08-19T22:29:52.496Z,101392.53
2022-08-19T22:31:58.302Z,101392.63
2022-08-19T22:33:59.949Z,101389.91
2022-08-19T22:36:01.448Z,101391.72
2022-08-19T22:38:03.456Z,101393.50
2022-08-19T22:40:05.902Z,101397.09
2022-08-19T22:42:07.520Z,101390.84
2022-08-19T22:44:10.393Z,101402.50
2022-08-19T22:46:17.171Z,101388.22
2022-08-19T22:48:20.022Z,101392.69
2022-08-19T22:50:21.665Z,101397.13
2022-08-19T22:52:23.170Z,101392.72
2022-08-19T22:54:24.967Z,101390.00
2022-08-19T22:56:26.482Z,101386.44
2022-08-19T22:58:29.400Z,101392.69
2022-08-19T23:00:32.568Z,101394.50
2022-08-19T23:02:35.380Z,101395.38
2022-08-19T23:04:36.865Z,101391.78
2022-08-19T23:06:41.839Z,101391.81
2022-08-19T23:08:43.827Z,101387.34
2022-08-19T23:10:45.346Z,101391.84
2022-08-19T23:12:47.267Z,101399.91
2022-08-19T23:14:48.776Z,101394.53
2022-08-19T23:16:53.436Z,101394.53
2022-08-19T23:18:57.403Z,101395.44
2022-08-19T23:20:58.976Z,101394.50
2022-08-19T23:23:01.314Z,101403.47
2022-08-19T23:25:03.650Z,101399.91
2022-08-19T23:27:05.278Z,101397.22